sensor_id;sensor_type;location;lat;lon;timestamp;P1;durP1;ratioP1;P2;durP2;ratioP2
5133;SDS011;2585;48.696;10.066;2023-03-03T00:01:49;34.08;;;17.48;;
5133;SDS011;2585;48.696;10.066;2023-03-03T00:04:15;36.13;;;17.70;;
5133;SDS011;2585;48.696;10.066;2023-03-03T00:06:43;38.40;;;19.70;;
5133;SDS011;2585;48.696;10.066;2023-03-03T00:09:11;42.67;;;19.08;;
5133;SDS011;2585;48.696;10.066;2023-03-03T00:11:37;37.72;;;19.42;;
5133;SDS011;2585;48.696;10.066;2023-03-03T00:14:09;42.78;;;19.25;;
5133;SDS011;2585;48.696;10.066;2023-03-03T00:16:45;43.97;;;21.48;;
5133;SDS011;2585;48.696;10.066;2023-03-03T00:19:16;41.90;;;20.58;;
5133;SDS011;2585;48.696;10.066;2023-03-03T00:21:45;40.05;;;20.50;;
5133;SDS011;2585;48.696;10.066;2023-03-03T00:24:23;40.28;;;20.63;;
5133;SDS011;2585;48.696;10.066;2023-03-03T00:26:59;43.35;;;20.92;;
5133;SDS011;2585;48.696;10.066;2023-03-03T00:29:36;47.90;;;20.05;;
5133;SDS011;2585;48.696;10.066;2023-03-03T00:34:49;42.38;;;21.40;;
5133;SDS011;2585;48.696;10.066;2023-03-03T00:37:34;40.22;;;21.08;;
5133;SDS011;2585;48.696;10.066;2023-03-03T00:40:10;42.40;;;22.00;;
5133;SDS011;2585;48.696;10.066;2023-03-03T00:43:32;39.55;;;21.85;;
5133;SDS011;2585;48.696;10.066;2023-03-03T00:48:39;48.33;;;21.25;;
5133;SDS011;2585;48.696;10.066;2023-03-03T00:51:24;48.00;;;21.73;;
5133;SDS011;2585;48.696;10.066;2023-03-03T00:53:53;45.08;;;21.95;;
5133;SDS011;2585;48.696;10.066;2023-03-03T00:56:21;44.15;;;21.80;;
5133;SDS011;2585;48.696;10.066;2023-03-03T00:58:49;45.83;;;21.55;;
5133;SDS011;2585;48.696;10.066;2023-03-03T01:01:16;48.53;;;22.05;;
5133;SDS011;2585;48.696;10.066;2023-03-03T01:03:43;41.65;;;22.30;;
5133;SDS011;2585;48.696;10.066;2023-03-03T01:06:11;41.72;;;22.17;;
5133;SDS011;2585;48.696;10.066;2023-03-03T01:08:39;51.85;;;23.75;;
5133;SDS011;2585;48.696;10.066;2023-03-03T01:11:07;45.35;;;22.90;;
5133;SDS011;2585;48.696;10.066;2023-03-03T01:13:37;52.33;;;22.23;;
5133;SDS011;2585;48.696;10.066;2023-03-03T01:16:06;52.78;;;21.67;;
5133;SDS011;2585;48.696;10.066;2023-03-03T01:18:33;46.92;;;22.95;;
5133;SDS011;2585;48.696;10.066;2023-03-03T01:21:01;52.00;;;22.85;;
5133;SDS011;2585;48.696;10.066;2023-03-03T01:23:28;42.25;;;21.25;;
5133;SDS011;2585;48.696;10.066;2023-03-03T01:25:54;49.45;;;21.88;;
5133;SDS011;2585;48.696;10.066;2023-03-03T01:28:21;45.35;;;20.92;;
5133;SDS011;2585;48.696;10.066;2023-03-03T01:30:48;42.70;;;20.70;;
5133;SDS011;2585;48.696;10.066;2023-03-03T01:33:16;41.78;;;21.42;;
5133;SDS011;2585;48.696;10.066;2023-03-03T01:35:44;43.05;;;21.65;;
5133;SDS011;2585;48.696;10.066;2023-03-03T01:38:14;44.70;;;21.00;;
5133;SDS011;2585;48.696;10.066;2023-03-03T01:40:41;37.47;;;21.48;;
5133;SDS011;2585;48.696;10.066;2023-03-03T01:43:09;52.05;;;23.92;;
5133;SDS011;2585;48.696;10.066;2023-03-03T01:48:15;43.95;;;21.25;;
5133;SDS011;2585;48.696;10.066;2023-03-03T01:50:49;50.67;;;21.65;;
5133;SDS011;2585;48.696;10.066;2023-03-03T01:53:22;51.53;;;22.30;;
5133;SDS011;2585;48.696;10.066;2023-03-03T01:55:58;40.25;;;20.75;;
5133;SDS011;2585;48.696;10.066;2023-03-03T01:58:27;45.53;;;21.05;;
5133;SDS011;2585;48.696;10.066;2023-03-03T02:00:58;41.40;;;21.10;;
5133;SDS011;2585;48.696;10.066;2023-03-03T02:03:28;49.28;;;23.02;;
5133;SDS011;2585;48.696;10.066;2023-03-03T02:05:57;47.10;;;23.83;;
5133;SDS011;2585;48.696;10.066;2023-03-03T02:09:03;51.60;;;22.15;;
5133;SDS011;2585;48.696;10.066;2023-03-03T02:11:43;43.78;;;22.13;;
5133;SDS011;2585;48.696;10.066;2023-03-03T02:14:12;48.75;;;23.50;;
5133;SDS011;2585;48.696;10.066;2023-03-03T02:16:39;51.15;;;23.48;;
5133;SDS011;2585;48.696;10.066;2023-03-03T02:19:08;49.25;;;24.08;;
5133;SDS011;2585;48.696;10.066;2023-03-03T02:21:43;48.05;;;23.95;;
5133;SDS011;2585;48.696;10.066;2023-03-03T02:24:13;53.08;;;23.70;;
5133;SDS011;2585;48.696;10.066;2023-03-03T02:26:46;47.13;;;23.75;;
5133;SDS011;2585;48.696;10.066;2023-03-03T02:29:13;50.50;;;24.10;;
5133;SDS011;2585;48.696;10.066;2023-03-03T02:31:40;52.22;;;22.77;;
5133;SDS011;2585;48.696;10.066;2023-03-03T02:34:08;49.28;;;24.08;;
5133;SDS011;2585;48.696;10.066;2023-03-03T02:36:36;46.75;;;23.15;;
5133;SDS011;2585;48.696;10.066;2023-03-03T02:39:06;47.72;;;23.52;;
5133;SDS011;2585;48.696;10.066;2023-03-03T02:44:54;45.30;;;23.08;;
5133;SDS011;2585;48.696;10.066;2023-03-03T02:47:21;41.28;;;22.20;;
5133;SDS011;2585;48.696;10.066;2023-03-03T02:49:47;50.38;;;23.38;;
5133;SDS011;2585;48.696;10.066;2023-03-03T02:52:14;46.58;;;21.30;;
5133;SDS011;2585;48.696;10.066;2023-03-03T02:54:43;42.85;;;22.65;;
5133;SDS011;2585;48.696;10.066;2023-03-03T02:57:10;47.58;;;22.92;;
5133;SDS011;2585;48.696;10.066;2023-03-03T02:59:37;47.85;;;22.83;;
5133;SDS011;2585;48.696;10.066;2023-03-03T03:02:04;46.13;;;24.10;;
5133;SDS011;2585;48.696;10.066;2023-03-03T03:04:32;49.50;;;23.75;;
5133;SDS011;2585;48.696;10.066;2023-03-03T03:06:59;57.70;;;25.90;;
5133;SDS011;2585;48.696;10.066;2023-03-03T03:09:26;47.90;;;23.00;;
5133;SDS011;2585;48.696;10.066;2023-03-03T03:11:53;57.83;;;24.35;;
5133;SDS011;2585;48.696;10.066;2023-03-03T03:14:20;47.42;;;23.45;;
5133;SDS011;2585;48.696;10.066;2023-03-03T03:16:48;45.38;;;24.13;;
5133;SDS011;2585;48.696;10.066;2023-03-03T03:19:15;48.97;;;25.02;;
5133;SDS011;2585;48.696;10.066;2023-03-03T03:21:42;56.30;;;26.02;;
5133;SDS011;2585;48.696;10.066;2023-03-03T03:24:08;53.22;;;24.85;;
5133;SDS011;2585;48.696;10.066;2023-03-03T03:26:35;56.90;;;26.02;;
5133;SDS011;2585;48.696;10.066;2023-03-03T03:29:02;56.45;;;28.25;;
5133;SDS011;2585;48.696;10.066;2023-03-03T03:31:29;47.28;;;27.45;;
5133;SDS011;2585;48.696;10.066;2023-03-03T03:33:57;60.20;;;28.63;;
5133;SDS011;2585;48.696;10.066;2023-03-03T03:36:25;50.35;;;25.23;;
5133;SDS011;2585;48.696;10.066;2023-03-03T03:38:53;49.70;;;25.83;;
5133;SDS011;2585;48.696;10.066;2023-03-03T03:41:20;63.00;;;26.60;;
5133;SDS011;2585;48.696;10.066;2023-03-03T03:43:46;62.28;;;26.80;;
5133;SDS011;2585;48.696;10.066;2023-03-03T03:46:13;60.38;;;26.50;;
5133;SDS011;2585;48.696;10.066;2023-03-03T03:48:40;52.40;;;26.60;;
5133;SDS011;2585;48.696;10.066;2023-03-03T03:51:08;54.17;;;27.23;;
5133;SDS011;2585;48.696;10.066;2023-03-03T03:53:36;52.08;;;26.55;;
5133;SDS011;2585;48.696;10.066;2023-03-03T03:56:03;53.83;;;26.33;;
5133;SDS011;2585;48.696;10.066;2023-03-03T03:58:30;55.67;;;27.23;;
5133;SDS011;2585;48.696;10.066;2023-03-03T04:01:03;57.10;;;26.33;;
5133;SDS011;2585;48.696;10.066;2023-03-03T04:03:31;59.00;;;25.85;;
5133;SDS011;2585;48.696;10.066;2023-03-03T04:05:59;53.88;;;26.58;;
5133;SDS011;2585;48.696;10.066;2023-03-03T04:08:25;55.95;;;27.58;;
5133;SDS011;2585;48.696;10.066;2023-03-03T04:10:52;53.95;;;26.08;;
5133;SDS011;2585;48.696;10.066;2023-03-03T04:13:19;55.58;;;24.83;;
5133;SDS011;2585;48.696;10.066;2023-03-03T04:15:46;50.47;;;24.65;;
5133;SDS011;2585;48.696;10.066;2023-03-03T04:18:13;55.20;;;25.88;;
5133;SDS011;2585;48.696;10.066;2023-03-03T04:20:40;49.45;;;24.95;;
5133;SDS011;2585;48.696;10.066;2023-03-03T04:23:07;57.20;;;27.17;;
5133;SDS011;2585;48.696;10.066;2023-03-03T04:25:33;60.95;;;27.77;;
5133;SDS011;2585;48.696;10.066;2023-03-03T04:28:00;54.88;;;26.75;;
5133;SDS011;2585;48.696;10.066;2023-03-03T04:30:30;66.28;;;29.60;;
5133;SDS011;2585;48.696;10.066;2023-03-03T04:32:57;55.45;;;28.98;;
5133;SDS011;2585;48.696;10.066;2023-03-03T04:35:24;57.92;;;29.27;;
5133;SDS011;2585;48.696;10.066;2023-03-03T04:37:51;59.80;;;29.60;;
5133;SDS011;2585;48.696;10.066;2023-03-03T04:40:17;72.25;;;30.27;;
5133;SDS011;2585;48.696;10.066;2023-03-03T04:42:44;65.03;;;31.90;;
5133;SDS011;2585;48.696;10.066;2023-03-03T04:45:11;66.47;;;31.45;;
5133;SDS011;2585;48.696;10.066;2023-03-03T04:47:38;60.85;;;32.05;;
5133;SDS011;2585;48.696;10.066;2023-03-03T04:50:05;60.35;;;27.50;;
5133;SDS011;2585;48.696;10.066;2023-03-03T04:52:33;54.60;;;28.15;;
5133;SDS011;2585;48.696;10.066;2023-03-03T04:54:59;62.92;;;28.52;;
5133;SDS011;2585;48.696;10.066;2023-03-03T04:57:26;61.00;;;28.02;;
5133;SDS011;2585;48.696;10.066;2023-03-03T04:59:53;55.50;;;27.02;;
5133;SDS011;2585;48.696;10.066;2023-03-03T05:02:20;53.25;;;26.33;;
5133;SDS011;2585;48.696;10.066;2023-03-03T05:04:47;68.15;;;29.17;;
5133;SDS011;2585;48.696;10.066;2023-03-03T05:07:14;60.10;;;26.95;;
5133;SDS011;2585;48.696;10.066;2023-03-03T05:09:40;63.20;;;28.80;;
5133;SDS011;2585;48.696;10.066;2023-03-03T05:12:07;58.65;;;26.27;;
5133;SDS011;2585;48.696;10.066;2023-03-03T05:14:34;59.83;;;29.70;;
5133;SDS011;2585;48.696;10.066;2023-03-03T05:17:02;58.13;;;29.20;;
5133;SDS011;2585;48.696;10.066;2023-03-03T05:19:29;71.72;;;30.25;;
5133;SDS011;2585;48.696;10.066;2023-03-03T05:21:56;54.83;;;28.20;;
5133;SDS011;2585;48.696;10.066;2023-03-03T05:24:23;55.85;;;28.17;;
5133;SDS011;2585;48.696;10.066;2023-03-03T05:26:50;56.55;;;29.25;;
5133;SDS011;2585;48.696;10.066;2023-03-03T05:29:17;54.05;;;28.58;;
5133;SDS011;2585;48.696;10.066;2023-03-03T05:31:44;55.05;;;26.83;;
5133;SDS011;2585;48.696;10.066;2023-03-03T05:34:11;55.10;;;27.88;;
5133;SDS011;2585;48.696;10.066;2023-03-03T05:36:37;50.65;;;27.73;;
5133;SDS011;2585;48.696;10.066;2023-03-03T05:39:04;57.40;;;29.33;;
5133;SDS011;2585;48.696;10.066;2023-03-03T05:41:31;61.63;;;28.33;;
5133;SDS011;2585;48.696;10.066;2023-03-03T05:44:02;58.67;;;30.88;;
5133;SDS011;2585;48.696;10.066;2023-03-03T05:46:29;56.10;;;27.08;;
5133;SDS011;2585;48.696;10.066;2023-03-03T05:48:56;58.35;;;28.63;;
5133;SDS011;2585;48.696;10.066;2023-03-03T05:51:22;60.85;;;30.05;;
5133;SDS011;2585;48.696;10.066;2023-03-03T05:53:49;56.30;;;27.80;;
5133;SDS011;2585;48.696;10.066;2023-03-03T05:56:16;57.00;;;30.17;;
5133;SDS011;2585;48.696;10.066;2023-03-03T05:58:43;64.00;;;28.55;;
5133;SDS011;2585;48.696;10.066;2023-03-03T06:01:10;58.42;;;30.80;;
5133;SDS011;2585;48.696;10.066;2023-03-03T06:03:37;55.47;;;28.77;;
5133;SDS011;2585;48.696;10.066;2023-03-03T06:06:04;57.85;;;29.15;;
5133;SDS011;2585;48.696;10.066;2023-03-03T06:08:31;67.07;;;32.83;;
5133;SDS011;2585;48.696;10.066;2023-03-03T06:10:58;66.00;;;30.88;;
5133;SDS011;2585;48.696;10.066;2023-03-03T06:13:25;63.65;;;31.02;;
5133;SDS011;2585;48.696;10.066;2023-03-03T06:15:52;68.38;;;33.03;;
5133;SDS011;2585;48.696;10.066;2023-03-03T06:18:19;67.78;;;32.20;;
5133;SDS011;2585;48.696;10.066;2023-03-03T06:20:49;70.25;;;34.60;;
5133;SDS011;2585;48.696;10.066;2023-03-03T06:23:17;62.58;;;32.72;;
5133;SDS011;2585;48.696;10.066;2023-03-03T06:25:43;60.85;;;32.00;;
5133;SDS011;2585;48.696;10.066;2023-03-03T06:28:11;64.60;;;33.03;;
5133;SDS011;2585;48.696;10.066;2023-03-03T06:30:38;65.72;;;31.52;;
5133;SDS011;2585;48.696;10.066;2023-03-03T06:33:05;60.78;;;30.30;;
5133;SDS011;2585;48.696;10.066;2023-03-03T06:35:32;66.72;;;33.92;;
5133;SDS011;2585;48.696;10.066;2023-03-03T06:38:00;64.78;;;32.40;;
5133;SDS011;2585;48.696;10.066;2023-03-03T06:40:27;66.65;;;32.53;;
5133;SDS011;2585;48.696;10.066;2023-03-03T06:42:54;69.45;;;35.35;;
5133;SDS011;2585;48.696;10.066;2023-03-03T06:45:21;60.42;;;31.05;;
5133;SDS011;2585;48.696;10.066;2023-03-03T06:47:47;68.82;;;33.13;;
5133;SDS011;2585;48.696;10.066;2023-03-03T06:50:14;81.90;;;34.78;;
5133;SDS011;2585;48.696;10.066;2023-03-03T06:52:45;62.53;;;32.22;;
5133;SDS011;2585;48.696;10.066;2023-03-03T06:55:12;64.65;;;32.75;;
5133;SDS011;2585;48.696;10.066;2023-03-03T06:57:46;70.18;;;33.72;;
5133;SDS011;2585;48.696;10.066;2023-03-03T07:02:46;72.38;;;33.05;;
5133;SDS011;2585;48.696;10.066;2023-03-03T07:05:18;69.60;;;34.05;;
5133;SDS011;2585;48.696;10.066;2023-03-03T07:07:46;68.88;;;34.17;;
5133;SDS011;2585;48.696;10.066;2023-03-03T07:10:16;63.45;;;32.25;;
5133;SDS011;2585;48.696;10.066;2023-03-03T07:12:48;75.07;;;33.17;;
5133;SDS011;2585;48.696;10.066;2023-03-03T07:23:48;76.13;;;34.20;;
5133;SDS011;2585;48.696;10.066;2023-03-03T07:26:27;69.10;;;33.85;;
5133;SDS011;2585;48.696;10.066;2023-03-03T07:31:54;68.20;;;32.25;;
5133;SDS011;2585;48.696;10.066;2023-03-03T07:34:24;70.78;;;31.92;;
5133;SDS011;2585;48.696;10.066;2023-03-03T07:37:00;77.43;;;33.05;;
5133;SDS011;2585;48.696;10.066;2023-03-03T07:39:33;64.38;;;32.22;;
5133;SDS011;2585;48.696;10.066;2023-03-03T07:42:25;67.07;;;34.05;;
5133;SDS011;2585;48.696;10.066;2023-03-03T07:45:20;65.90;;;31.92;;
5133;SDS011;2585;48.696;10.066;2023-03-03T07:47:51;64.57;;;31.58;;
5133;SDS011;2585;48.696;10.066;2023-03-03T07:50:44;67.97;;;33.45;;
5133;SDS011;2585;48.696;10.066;2023-03-03T07:53:11;65.18;;;32.70;;
5133;SDS011;2585;48.696;10.066;2023-03-03T07:55:47;74.05;;;33.55;;
5133;SDS011;2585;48.696;10.066;2023-03-03T07:58:16;67.50;;;33.63;;
5133;SDS011;2585;48.696;10.066;2023-03-03T08:03:43;65.25;;;32.60;;
5133;SDS011;2585;48.696;10.066;2023-03-03T08:09:01;64.55;;;31.33;;
5133;SDS011;2585;48.696;10.066;2023-03-03T08:14:15;64.43;;;31.23;;
5133;SDS011;2585;48.696;10.066;2023-03-03T08:16:55;66.95;;;32.92;;
5133;SDS011;2585;48.696;10.066;2023-03-03T08:19:27;64.60;;;32.15;;
5133;SDS011;2585;48.696;10.066;2023-03-03T08:22:08;73.70;;;34.80;;
5133;SDS011;2585;48.696;10.066;2023-03-03T08:24:40;66.70;;;34.10;;
5133;SDS011;2585;48.696;10.066;2023-03-03T08:27:06;71.22;;;32.25;;
5133;SDS011;2585;48.696;10.066;2023-03-03T08:29:33;64.10;;;33.28;;
5133;SDS011;2585;48.696;10.066;2023-03-03T08:32:00;65.25;;;30.98;;
5133;SDS011;2585;48.696;10.066;2023-03-03T08:34:27;66.90;;;34.13;;
5133;SDS011;2585;48.696;10.066;2023-03-03T08:36:54;64.20;;;32.95;;
5133;SDS011;2585;48.696;10.066;2023-03-03T08:39:23;77.65;;;33.47;;
5133;SDS011;2585;48.696;10.066;2023-03-03T08:41:50;66.18;;;32.63;;
5133;SDS011;2585;48.696;10.066;2023-03-03T08:44:17;69.25;;;32.40;;
5133;SDS011;2585;48.696;10.066;2023-03-03T08:46:45;65.63;;;34.50;;
5133;SDS011;2585;48.696;10.066;2023-03-03T08:49:12;67.90;;;33.83;;
5133;SDS011;2585;48.696;10.066;2023-03-03T08:51:39;63.67;;;31.27;;
5133;SDS011;2585;48.696;10.066;2023-03-03T08:54:06;65.55;;;31.75;;
5133;SDS011;2585;48.696;10.066;2023-03-03T08:56:33;67.68;;;33.28;;
5133;SDS011;2585;48.696;10.066;2023-03-03T08:59:00;67.22;;;33.67;;
5133;SDS011;2585;48.696;10.066;2023-03-03T09:01:29;62.83;;;31.27;;
5133;SDS011;2585;48.696;10.066;2023-03-03T09:04:00;61.33;;;30.77;;
5133;SDS011;2585;48.696;10.066;2023-03-03T09:06:26;61.13;;;31.30;;
5133;SDS011;2585;48.696;10.066;2023-03-03T09:08:53;54.30;;;29.30;;
5133;SDS011;2585;48.696;10.066;2023-03-03T09:11:25;51.80;;;28.07;;
5133;SDS011;2585;48.696;10.066;2023-03-03T09:13:57;53.75;;;29.05;;
5133;SDS011;2585;48.696;10.066;2023-03-03T09:16:33;59.90;;;31.70;;
5133;SDS011;2585;48.696;10.066;2023-03-03T09:19:45;57.57;;;28.63;;
5133;SDS011;2585;48.696;10.066;2023-03-03T09:21:55;53.43;;;28.23;;
5133;SDS011;2585;48.696;10.066;2023-03-03T09:24:27;60.63;;;29.97;;
5133;SDS011;2585;48.696;10.066;2023-03-03T09:26:56;58.00;;;26.87;;
5133;SDS011;2585;48.696;10.066;2023-03-03T09:29:25;48.50;;;25.13;;
5133;SDS011;2585;48.696;10.066;2023-03-03T09:31:57;48.87;;;26.47;;
5133;SDS011;2585;48.696;10.066;2023-03-03T09:34:40;49.40;;;24.97;;
5133;SDS011;2585;48.696;10.066;2023-03-03T09:39:53;48.60;;;25.63;;
5133;SDS011;2585;48.696;10.066;2023-03-03T09:45:18;45.10;;;23.70;;
5133;SDS011;2585;48.696;10.066;2023-03-03T10:07:29;43.80;;;25.13;;
5133;SDS011;2585;48.696;10.066;2023-03-03T10:13:28;43.17;;;24.00;;
5133;SDS011;2585;48.696;10.066;2023-03-03T10:18:48;44.10;;;23.37;;
5133;SDS011;2585;48.696;10.066;2023-03-03T10:21:39;47.43;;;23.40;;
5133;SDS011;2585;48.696;10.066;2023-03-03T10:30:23;51.43;;;26.93;;
5133;SDS011;2585;48.696;10.066;2023-03-03T10:33:18;51.10;;;25.37;;
5133;SDS011;2585;48.696;10.066;2023-03-03T10:36:08;43.30;;;24.47;;
5133;SDS011;2585;48.696;10.066;2023-03-03T10:38:53;52.73;;;24.90;;
5133;SDS011;2585;48.696;10.066;2023-03-03T10:41:46;44.50;;;24.23;;
5133;SDS011;2585;48.696;10.066;2023-03-03T10:44:23;46.23;;;24.70;;
5133;SDS011;2585;48.696;10.066;2023-03-03T10:55:48;43.07;;;25.13;;
5133;SDS011;2585;48.696;10.066;2023-03-03T11:00:58;54.83;;;27.20;;
5133;SDS011;2585;48.696;10.066;2023-03-03T11:09:21;43.73;;;24.30;;
5133;SDS011;2585;48.696;10.066;2023-03-03T11:17:53;33.27;;;22.00;;
5133;SDS011;2585;48.696;10.066;2023-03-03T11:26:08;39.00;;;21.10;;
5133;SDS011;2585;48.696;10.066;2023-03-03T11:37:48;36.37;;;20.93;;
5133;SDS011;2585;48.696;10.066;2023-03-03T11:40:19;32.43;;;19.10;;
5133;SDS011;2585;48.696;10.066;2023-03-03T11:45:28;36.70;;;20.90;;
5133;SDS011;2585;48.696;10.066;2023-03-03T11:48:07;40.80;;;21.53;;
5133;SDS011;2585;48.696;10.066;2023-03-03T11:56:43;47.50;;;21.90;;
5133;SDS011;2585;48.696;10.066;2023-03-03T12:08:07;33.17;;;20.53;;
5133;SDS011;2585;48.696;10.066;2023-03-03T12:17:05;36.20;;;19.70;;
5133;SDS011;2585;48.696;10.066;2023-03-03T12:22:34;37.97;;;19.37;;
5133;SDS011;2585;48.696;10.066;2023-03-03T12:28:21;34.20;;;20.80;;
5133;SDS011;2585;48.696;10.066;2023-03-03T12:37:00;38.13;;;21.40;;
5133;SDS011;2585;48.696;10.066;2023-03-03T12:45:27;36.37;;;21.80;;
5133;SDS011;2585;48.696;10.066;2023-03-03T12:48:00;35.27;;;20.93;;
5133;SDS011;2585;48.696;10.066;2023-03-03T12:50:41;35.20;;;20.33;;
5133;SDS011;2585;48.696;10.066;2023-03-03T12:56:09;39.17;;;19.90;;
5133;SDS011;2585;48.696;10.066;2023-03-03T12:58:59;32.30;;;19.90;;
5133;SDS011;2585;48.696;10.066;2023-03-03T13:01:40;31.03;;;20.77;;
5133;SDS011;2585;48.696;10.066;2023-03-03T13:07:13;37.57;;;20.50;;
5133;SDS011;2585;48.696;10.066;2023-03-03T13:10:01;39.70;;;21.23;;
5133;SDS011;2585;48.696;10.066;2023-03-03T13:13:04;36.60;;;21.60;;
5133;SDS011;2585;48.696;10.066;2023-03-03T13:20:36;33.27;;;20.80;;
5133;SDS011;2585;48.696;10.066;2023-03-03T13:32:07;25.50;;;17.43;;
5133;SDS011;2585;48.696;10.066;2023-03-03T13:37:17;36.93;;;19.20;;
5133;SDS011;2585;48.696;10.066;2023-03-03T13:40:00;37.57;;;20.90;;
5133;SDS011;2585;48.696;10.066;2023-03-03T13:45:42;32.70;;;19.23;;
5133;SDS011;2585;48.696;10.066;2023-03-03T13:50:57;33.20;;;19.40;;
5133;SDS011;2585;48.696;10.066;2023-03-03T14:01:40;29.33;;;18.37;;
5133;SDS011;2585;48.696;10.066;2023-03-03T14:06:54;30.90;;;19.27;;
5133;SDS011;2585;48.696;10.066;2023-03-03T14:09:40;31.30;;;19.10;;
5133;SDS011;2585;48.696;10.066;2023-03-03T14:15:03;30.37;;;18.70;;
5133;SDS011;2585;48.696;10.066;2023-03-03T14:20:54;28.50;;;18.80;;
5133;SDS011;2585;48.696;10.066;2023-03-03T14:26:16;29.80;;;18.53;;
5133;SDS011;2585;48.696;10.066;2023-03-03T14:28:47;32.63;;;20.53;;
5133;SDS011;2585;48.696;10.066;2023-03-03T14:36:56;28.47;;;19.30;;
5133;SDS011;2585;48.696;10.066;2023-03-03T14:39:34;30.63;;;19.80;;
5133;SDS011;2585;48.696;10.066;2023-03-03T14:42:13;31.97;;;19.30;;
5133;SDS011;2585;48.696;10.066;2023-03-03T14:44:55;33.90;;;19.50;;
5133;SDS011;2585;48.696;10.066;2023-03-03T14:47:26;28.20;;;18.67;;
5133;SDS011;2585;48.696;10.066;2023-03-03T14:49:54;32.60;;;20.10;;
5133;SDS011;2585;48.696;10.066;2023-03-03T14:52:26;27.00;;;18.07;;
5133;SDS011;2585;48.696;10.066;2023-03-03T14:54:58;28.10;;;18.10;;
5133;SDS011;2585;48.696;10.066;2023-03-03T14:57:40;30.47;;;18.77;;
5133;SDS011;2585;48.696;10.066;2023-03-03T15:00:26;35.57;;;18.13;;
5133;SDS011;2585;48.696;10.066;2023-03-03T15:05:53;37.03;;;18.57;;
5133;SDS011;2585;48.696;10.066;2023-03-03T15:08:23;37.20;;;18.50;;
5133;SDS011;2585;48.696;10.066;2023-03-03T15:11:10;31.27;;;19.00;;
5133;SDS011;2585;48.696;10.066;2023-03-03T15:13:39;33.40;;;19.07;;
5133;SDS011;2585;48.696;10.066;2023-03-03T15:16:10;32.00;;;18.90;;
5133;SDS011;2585;48.696;10.066;2023-03-03T15:18:54;35.97;;;20.63;;
5133;SDS011;2585;48.696;10.066;2023-03-03T15:21:27;29.50;;;18.20;;
5133;SDS011;2585;48.696;10.066;2023-03-03T15:24:15;37.13;;;19.00;;
5133;SDS011;2585;48.696;10.066;2023-03-03T15:26:54;38.47;;;19.77;;
5133;SDS011;2585;48.696;10.066;2023-03-03T15:30:03;31.77;;;19.87;;
5133;SDS011;2585;48.696;10.066;2023-03-03T15:43:59;38.23;;;21.53;;
5133;SDS011;2585;48.696;10.066;2023-03-03T15:46:37;33.83;;;21.07;;
5133;SDS011;2585;48.696;10.066;2023-03-03T15:52:16;33.60;;;19.00;;
5133;SDS011;2585;48.696;10.066;2023-03-03T15:54:51;32.37;;;20.17;;
5133;SDS011;2585;48.696;10.066;2023-03-03T16:02:56;40.43;;;21.33;;
5133;SDS011;2585;48.696;10.066;2023-03-03T16:05:32;34.57;;;21.00;;
5133;SDS011;2585;48.696;10.066;2023-03-03T16:08:18;33.30;;;20.27;;
5133;SDS011;2585;48.696;10.066;2023-03-03T16:11:06;32.53;;;19.93;;
5133;SDS011;2585;48.696;10.066;2023-03-03T16:13:54;34.20;;;21.43;;
5133;SDS011;2585;48.696;10.066;2023-03-03T16:16:51;36.20;;;21.97;;
5133;SDS011;2585;48.696;10.066;2023-03-03T16:25:16;44.80;;;23.63;;
5133;SDS011;2585;48.696;10.066;2023-03-03T16:27:49;47.23;;;22.43;;
5133;SDS011;2585;48.696;10.066;2023-03-03T16:33:20;41.53;;;23.00;;
5133;SDS011;2585;48.696;10.066;2023-03-03T16:38:43;47.40;;;25.23;;
5133;SDS011;2585;48.696;10.066;2023-03-03T16:41:20;47.07;;;26.97;;
5133;SDS011;2585;48.696;10.066;2023-03-03T16:46:40;35.23;;;20.60;;
5133;SDS011;2585;48.696;10.066;2023-03-03T16:49:20;35.13;;;19.90;;
5133;SDS011;2585;48.696;10.066;2023-03-03T16:52:18;45.27;;;25.93;;
5133;SDS011;2585;48.696;10.066;2023-03-03T16:55:04;34.60;;;20.03;;
5133;SDS011;2585;48.696;10.066;2023-03-03T17:03:31;46.23;;;26.37;;
5133;SDS011;2585;48.696;10.066;2023-03-03T17:06:17;48.60;;;29.27;;
5133;SDS011;2585;48.696;10.066;2023-03-03T17:19:54;38.60;;;21.40;;
5133;SDS011;2585;48.696;10.066;2023-03-03T17:22:42;37.10;;;21.23;;
5133;SDS011;2585;48.696;10.066;2023-03-03T17:25:36;33.83;;;19.70;;
5133;SDS011;2585;48.696;10.066;2023-03-03T17:28:34;37.83;;;22.43;;
5133;SDS011;2585;48.696;10.066;2023-03-03T17:44:37;46.30;;;22.93;;
5133;SDS011;2585;48.696;10.066;2023-03-03T17:47:16;43.30;;;23.10;;
5133;SDS011;2585;48.696;10.066;2023-03-03T17:55:52;45.40;;;23.60;;
5133;SDS011;2585;48.696;10.066;2023-03-03T18:04:56;73.87;;;37.80;;
5133;SDS011;2585;48.696;10.066;2023-03-03T18:23:53;43.28;;;22.40;;
5133;SDS011;2585;48.696;10.066;2023-03-03T18:27:11;46.38;;;23.42;;
5133;SDS011;2585;48.696;10.066;2023-03-03T18:32:40;37.20;;;20.33;;
5133;SDS011;2585;48.696;10.066;2023-03-03T18:40:55;35.95;;;19.88;;
5133;SDS011;2585;48.696;10.066;2023-03-03T18:43:48;47.22;;;20.38;;
5133;SDS011;2585;48.696;10.066;2023-03-03T18:49:05;40.55;;;20.65;;
5133;SDS011;2585;48.696;10.066;2023-03-03T18:54:04;34.78;;;19.40;;
5133;SDS011;2585;48.696;10.066;2023-03-03T18:56:44;39.47;;;20.80;;
5133;SDS011;2585;48.696;10.066;2023-03-03T19:04:52;35.60;;;18.92;;
5133;SDS011;2585;48.696;10.066;2023-03-03T19:12:54;41.65;;;21.33;;
5133;SDS011;2585;48.696;10.066;2023-03-03T19:18:00;38.13;;;20.40;;
5133;SDS011;2585;48.696;10.066;2023-03-03T19:20:38;39.35;;;21.02;;
5133;SDS011;2585;48.696;10.066;2023-03-03T19:28:57;36.67;;;20.98;;
5133;SDS011;2585;48.696;10.066;2023-03-03T19:37:18;41.50;;;22.85;;
5133;SDS011;2585;48.696;10.066;2023-03-03T19:46:04;44.63;;;22.75;;
5133;SDS011;2585;48.696;10.066;2023-03-03T19:56:51;45.85;;;23.25;;
5133;SDS011;2585;48.696;10.066;2023-03-03T20:02:27;46.08;;;23.63;;
5133;SDS011;2585;48.696;10.066;2023-03-03T20:05:25;44.42;;;23.45;;
5133;SDS011;2585;48.696;10.066;2023-03-03T20:13:57;54.13;;;27.25;;
5133;SDS011;2585;48.696;10.066;2023-03-03T20:16:39;50.80;;;25.55;;
5133;SDS011;2585;48.696;10.066;2023-03-03T20:19:20;50.20;;;24.65;;
5133;SDS011;2585;48.696;10.066;2023-03-03T20:22:16;56.97;;;25.27;;
5133;SDS011;2585;48.696;10.066;2023-03-03T20:27:49;49.30;;;23.98;;
5133;SDS011;2585;48.696;10.066;2023-03-03T20:31:13;48.50;;;24.48;;
5133;SDS011;2585;48.696;10.066;2023-03-03T20:39:37;72.85;;;31.80;;
5133;SDS011;2585;48.696;10.066;2023-03-03T20:42:17;63.58;;;29.42;;
5133;SDS011;2585;48.696;10.066;2023-03-03T20:50:45;52.15;;;25.13;;
5133;SDS011;2585;48.696;10.066;2023-03-03T20:53:42;66.57;;;29.98;;
5133;SDS011;2585;48.696;10.066;2023-03-03T20:56:20;62.17;;;27.98;;
5133;SDS011;2585;48.696;10.066;2023-03-03T21:01:33;45.83;;;22.83;;
5133;SDS011;2585;48.696;10.066;2023-03-03T21:06:54;53.47;;;23.50;;
5133;SDS011;2585;48.696;10.066;2023-03-03T21:09:35;54.70;;;22.75;;
5133;SDS011;2585;48.696;10.066;2023-03-03T21:12:10;50.53;;;24.17;;
5133;SDS011;2585;48.696;10.066;2023-03-03T21:15:30;53.95;;;25.42;;
5133;SDS011;2585;48.696;10.066;2023-03-03T21:18:17;49.08;;;21.30;;
5133;SDS011;2585;48.696;10.066;2023-03-03T21:20:49;43.72;;;23.08;;
5133;SDS011;2585;48.696;10.066;2023-03-03T21:23:16;46.55;;;22.45;;
5133;SDS011;2585;48.696;10.066;2023-03-03T21:25:47;46.80;;;25.23;;
5133;SDS011;2585;48.696;10.066;2023-03-03T21:28:25;51.42;;;24.10;;
5133;SDS011;2585;48.696;10.066;2023-03-03T21:31:00;52.70;;;24.92;;
5133;SDS011;2585;48.696;10.066;2023-03-03T21:33:45;53.00;;;26.52;;